Bluesette — PI4132 — position and weather

sailwx.info

Track history (hours):
 
Tides and Currents Weather Stations Pressure Air Temp Water Temp Dewpoint Dewpoint Depression Visibility Wind Speed Wind Dir Waves Ship Positions

Bluesette

Last reported at 2017-Aug-31 09:05 UTC. Time now 2017-Nov-21 17:42 UTC.
Position N 45°59' W 001°08'.
Warning: this ship's position is months out of date.

Length 12 m.

Type: Sailing vessel. MMSI: 244087083.

Date/timePositionNaut miles runAvg speedWind from/ knotsBaromVisibWave heightAir tempDewpointWater temp
2017-Aug-31 09:05N 45°59' W 001°08'1 5.9
2017-Aug-31 08:51N 45°60' W 001°09'2 5.1
2017-Aug-31 08:30N 46°01' W 001°11'3 5.8
2017-Aug-31 07:59N 46°04' W 001°12'2 4.5
2017-Aug-31 07:30N 46°06' W 001°12'2 4.6
2017-Aug-31 07:00N 46°08' W 001°12'1 2.3
2017-Aug-31 06:29N 46°09' W 001°10'0 0.0
2017-Aug-29 15:58N 46°09' W 001°10'0 0.0
2017-Aug-29 15:28N 46°09' W 001°10'0 0.0
2017-Aug-29 14:58N 46°09' W 001°10'0 0.0
2017-Aug-29 14:28N 46°09' W 001°10'0 0.0
2017-Aug-29 13:58N 46°09' W 001°10'0 0.0
2017-Aug-29 13:28N 46°09' W 001°10'0 0.0
2017-Aug-29 12:58N 46°09' W 001°10'0 0.0
2017-Aug-29 12:28N 46°09' W 001°10'0 0.0
2017-Aug-29 11:52N 46°09' W 001°10'0 0.0
2017-Aug-29 11:28N 46°09' W 001°10'0 0.4
2017-Aug-29 11:00N 46°09' W 001°10'2 3.4
2017-Aug-29 10:30N 46°08' W 001°12'3 5.8
2017-Aug-29 10:00N 46°11' W 001°15'29 0.6
2017-Aug-27 10:39N 46°29' W 001°47'1 4.1
2017-Aug-27 10:27N 46°30' W 001°48'0 0.0
2017-Aug-25 18:06N 46°30' W 001°47'0 0.0
2017-Aug-25 17:24N 46°30' W 001°47'0 0.0
2017-Aug-25 17:00N 46°30' W 001°47'0 0.0
2017-Aug-25 16:24N 46°30' W 001°47'0 0.0
2017-Aug-25 16:00N 46°30' W 001°47'0 0.0
2017-Aug-25 15:24N 46°30' W 001°47'0 0.0
2017-Aug-25 15:00N 46°30' W 001°47'0 0.6
2017-Aug-25 14:30N 46°30' W 001°48'2 2.1
2017-Aug-25 13:31N 46°29' W 001°50'2 4.5
2017-Aug-25 13:01N 46°30' W 001°53'3 5.3
2017-Aug-25 12:29N 46°32' W 001°55'3 5.5
2017-Aug-25 12:00N 46°34' W 001°58'21 0.4
2017-Aug-23 10:34N 46°48' W 002°21'4 4.9
2017-Aug-23 09:45N 46°52' W 002°22'2 4.8
2017-Aug-23 09:19N 46°54' W 002°23'2 4.7
2017-Aug-23 08:56N 46°56' W 002°24'5 4.8
2017-Aug-23 07:48N 47°01' W 002°20'2 5.1
2017-Aug-23 07:24N 47°02' W 002°18'16 0.4
2017-Aug-21 11:39N 47°15' W 002°31'1 5.7
2017-Aug-21 11:28N 47°16' W 002°32'2 5.2
2017-Aug-21 11:00N 47°18' W 002°34'2 4.9
2017-Aug-21 10:30N 47°20' W 002°32'  
Track history (hours):
 
Tides and Currents Weather Stations Pressure Air Temp Water Temp Dewpoint Dewpoint Depression Visibility Wind Speed Wind Dir Waves Ship Positions

Bluesette

Last reported at 2017-Aug-31 09:05 UTC. Time now 2017-Nov-21 17:42 UTC.
Position N 45°59' W 001°08'.
Warning: this ship's position is months out of date.

Length 12 m.

Type: Sailing vessel. MMSI: 244087083.

Date/timePositionNaut miles runAvg speedWind from/ knotsBaromVisibWave heightAir tempDewpointWater temp
2017-Aug-31 09:05N 45°59' W 001°08'1 5.9
2017-Aug-31 08:51N 45°60' W 001°09'2 5.1
2017-Aug-31 08:30N 46°01' W 001°11'3 5.8
2017-Aug-31 07:59N 46°04' W 001°12'2 4.5
2017-Aug-31 07:30N 46°06' W 001°12'2 4.6
2017-Aug-31 07:00N 46°08' W 001°12'1 2.3
2017-Aug-31 06:29N 46°09' W 001°10'0 0.0
2017-Aug-29 15:58N 46°09' W 001°10'0 0.0
2017-Aug-29 15:28N 46°09' W 001°10'0 0.0
2017-Aug-29 14:58N 46°09' W 001°10'0 0.0
2017-Aug-29 14:28N 46°09' W 001°10'0 0.0
2017-Aug-29 13:58N 46°09' W 001°10'0 0.0
2017-Aug-29 13:28N 46°09' W 001°10'0 0.0
2017-Aug-29 12:58N 46°09' W 001°10'0 0.0
2017-Aug-29 12:28N 46°09' W 001°10'0 0.0
2017-Aug-29 11:52N 46°09' W 001°10'0 0.0
2017-Aug-29 11:28N 46°09' W 001°10'0 0.4
2017-Aug-29 11:00N 46°09' W 001°10'2 3.4
2017-Aug-29 10:30N 46°08' W 001°12'3 5.8
2017-Aug-29 10:00N 46°11' W 001°15'29 0.6
2017-Aug-27 10:39N 46°29' W 001°47'1 4.1
2017-Aug-27 10:27N 46°30' W 001°48'0 0.0
2017-Aug-25 18:06N 46°30' W 001°47'0 0.0
2017-Aug-25 17:24N 46°30' W 001°47'0 0.0
2017-Aug-25 17:00N 46°30' W 001°47'0 0.0
2017-Aug-25 16:24N 46°30' W 001°47'0 0.0
2017-Aug-25 16:00N 46°30' W 001°47'0 0.0
2017-Aug-25 15:24N 46°30' W 001°47'0 0.0
2017-Aug-25 15:00N 46°30' W 001°47'0 0.6
2017-Aug-25 14:30N 46°30' W 001°48'2 2.1
2017-Aug-25 13:31N 46°29' W 001°50'2 4.5
2017-Aug-25 13:01N 46°30' W 001°53'3 5.3
2017-Aug-25 12:29N 46°32' W 001°55'3 5.5
2017-Aug-25 12:00N 46°34' W 001°58'21 0.4
2017-Aug-23 10:34N 46°48' W 002°21'4 4.9
2017-Aug-23 09:45N 46°52' W 002°22'2 4.8
2017-Aug-23 09:19N 46°54' W 002°23'2 4.7
2017-Aug-23 08:56N 46°56' W 002°24'5 4.8
2017-Aug-23 07:48N 47°01' W 002°20'2 5.1
2017-Aug-23 07:24N 47°02' W 002°18'16 0.4
2017-Aug-21 11:39N 47°15' W 002°31'1 5.7
2017-Aug-21 11:28N 47°16' W 002°32'2 5.2
2017-Aug-21 11:00N 47°18' W 002°34'2 4.9
2017-Aug-21 10:30N 47°20' W 002°32'  

Dump ship's entire track history